createdAt,value
2024-04-24T00:01:34.496Z,4.50
2024-04-24T00:04:03.462Z,2.60
2024-04-24T00:06:32.739Z,3.80
2024-04-24T00:09:01.818Z,2.10
2024-04-24T00:11:31.454Z,1.40
2024-04-24T00:14:00.555Z,1.90
2024-04-24T00:16:29.723Z,2.90
2024-04-24T00:19:00.091Z,2.90
2024-04-24T00:21:30.121Z,2.70
2024-04-24T00:23:59.272Z,2.20
2024-04-24T00:26:29.845Z,3.20
2024-04-24T00:28:58.847Z,2.70
2024-04-24T00:31:28.600Z,1.40
2024-04-24T00:33:57.941Z,2.60
2024-04-24T00:36:30.989Z,2.60
2024-04-24T00:39:00.193Z,3.40
2024-04-24T00:41:29.483Z,1.70
2024-04-24T00:43:58.392Z,2.80
2024-04-24T00:46:29.376Z,1.50
2024-04-24T00:49:01.329Z,1.80
2024-04-24T00:51:34.263Z,2.80
2024-04-24T00:54:03.014Z,1.70
2024-04-24T00:56:33.487Z,2.70
2024-04-24T00:59:03.581Z,3.00
2024-04-24T01:01:32.454Z,3.10
2024-04-24T01:04:01.268Z,3.50
2024-04-24T01:06:30.335Z,3.30
2024-04-24T01:08:59.534Z,3.00
2024-04-24T01:11:35.512Z,2.40
2024-04-24T01:14:08.306Z,1.70
2024-04-24T01:16:40.863Z,4.00
2024-04-24T01:19:49.795Z,1.80
2024-04-24T01:22:35.061Z,3.30
2024-04-24T01:25:13.476Z,4.10
2024-04-24T01:27:42.561Z,2.20
2024-04-24T01:30:13.428Z,3.70
2024-04-24T01:32:42.542Z,1.90
2024-04-24T01:35:12.191Z,3.80
2024-04-24T01:37:41.392Z,2.30
2024-04-24T01:40:10.505Z,3.30
2024-04-24T01:42:39.809Z,3.20
2024-04-24T01:45:09.380Z,2.90
2024-04-24T01:47:39.063Z,1.90
2024-04-24T01:50:08.291Z,2.50
2024-04-24T01:52:37.925Z,1.90
2024-04-24T01:55:08.656Z,2.10
2024-04-24T01:57:38.037Z,1.30
2024-04-24T02:00:07.878Z,2.20
2024-04-24T02:02:45.979Z,2.10
2024-04-24T02:05:15.544Z,2.70
2024-04-24T02:07:44.551Z,3.30
2024-04-24T02:10:13.444Z,3.10
2024-04-24T02:12:42.132Z,2.80
2024-04-24T02:15:11.013Z,3.20
2024-04-24T02:17:40.212Z,3.00
2024-04-24T02:20:10.529Z,3.20
2024-04-24T02:22:39.682Z,3.00
2024-04-24T02:25:26.699Z,2.10
2024-04-24T02:27:55.744Z,3.30
2024-04-24T02:30:24.782Z,1.90
2024-04-24T02:32:56.666Z,2.10
2024-04-24T02:35:25.540Z,3.20
2024-04-24T02:37:55.431Z,5.70
2024-04-24T02:40:25.229Z,2.80
2024-04-24T02:42:55.127Z,2.20
2024-04-24T02:45:24.746Z,2.70
2024-04-24T02:47:54.458Z,3.00
2024-04-24T02:50:24.354Z,4.40
2024-04-24T02:52:54.397Z,2.10
2024-04-24T02:55:24.817Z,1.40
2024-04-24T02:57:54.223Z,2.70
2024-04-24T03:00:23.179Z,3.00
2024-04-24T03:02:52.268Z,1.20
2024-04-24T03:05:21.852Z,3.00
2024-04-24T03:07:50.906Z,2.90
2024-04-24T03:10:20.105Z,2.60
2024-04-24T03:12:50.629Z,3.00
2024-04-24T03:15:20.112Z,1.60
2024-04-24T03:17:49.360Z,3.60
2024-04-24T03:20:21.988Z,2.00
2024-04-24T03:22:50.864Z,2.80
2024-04-24T03:25:20.320Z,2.10
2024-04-24T03:27:50.081Z,3.40
2024-04-24T03:30:19.994Z,3.10
2024-04-24T03:32:48.875Z,5.60
2024-04-24T03:35:18.014Z,2.60
2024-04-24T03:37:47.104Z,3.30
2024-04-24T03:40:16.284Z,3.00
2024-04-24T03:42:48.545Z,2.70
2024-04-24T03:45:17.337Z,5.40
2024-04-24T03:47:47.130Z,4.10
2024-04-24T03:50:15.976Z,8.10
2024-04-24T03:52:46.354Z,3.70
2024-04-24T03:55:16.077Z,4.20
2024-04-24T03:57:45.889Z,3.50
2024-04-24T04:00:16.991Z,4.80
2024-04-24T04:02:47.156Z,4.60
2024-04-24T04:05:16.115Z,4.80
2024-04-24T04:07:45.869Z,3.50
2024-04-24T04:10:14.861Z,3.40
2024-04-24T04:12:45.586Z,3.40
2024-04-24T04:15:17.492Z,3.60
2024-04-24T04:17:51.587Z,3.20
2024-04-24T04:20:21.144Z,4.30
2024-04-24T04:22:50.684Z,3.40
2024-04-24T04:25:19.874Z,3.40
2024-04-24T04:27:49.761Z,3.20
2024-04-24T04:30:19.090Z,3.90
2024-04-24T04:32:49.868Z,5.70
2024-04-24T04:35:18.760Z,11.30
2024-04-24T04:37:48.122Z,14.20
2024-04-24T04:40:17.134Z,14.80
2024-04-24T04:42:46.714Z,11.40
2024-04-24T04:45:15.995Z,16.90
2024-04-24T04:47:45.318Z,13.30
2024-04-24T04:50:14.707Z,19.20
2024-04-24T04:52:44.193Z,11.80
2024-04-24T04:55:14.044Z,20.80
2024-04-24T04:57:43.516Z,22.10
2024-04-24T05:00:12.804Z,18.10
2024-04-24T05:02:43.175Z,22.40
2024-04-24T05:05:13.434Z,26.90
2024-04-24T05:07:42.547Z,17.30
2024-04-24T05:10:11.573Z,16.90
2024-04-24T05:12:41.663Z,23.00
2024-04-24T05:15:10.360Z,18.10
2024-04-24T05:17:39.344Z,17.20
2024-04-24T05:20:08.723Z,16.20
2024-04-24T05:22:48.243Z,18.90
2024-04-24T05:25:18.699Z,19.40
2024-04-24T05:28:05.936Z,22.90
2024-04-24T05:30:35.203Z,21.40
2024-04-24T05:33:04.873Z,15.70
2024-04-24T05:35:34.158Z,16.50
2024-04-24T05:38:03.750Z,19.50
2024-04-24T05:40:33.252Z,19.50
2024-04-24T05:43:06.250Z,20.30
2024-04-24T05:45:36.159Z,23.10
2024-04-24T05:48:05.530Z,18.80
2024-04-24T05:50:34.517Z,17.50
2024-04-24T05:53:03.356Z,21.50
2024-04-24T05:55:32.616Z,18.30
2024-04-24T05:58:01.311Z,22.60
2024-04-24T06:00:30.590Z,18.80
2024-04-24T06:03:00.082Z,15.30
2024-04-24T06:05:30.026Z,16.40
2024-04-24T06:07:59.551Z,23.60
2024-04-24T06:10:28.633Z,23.40
2024-04-24T06:12:57.519Z,17.10
2024-04-24T06:15:28.043Z,17.20
2024-04-24T06:17:57.970Z,21.30
2024-04-24T06:20:27.988Z,18.40
2024-04-24T06:22:57.192Z,24.70
2024-04-24T06:25:26.369Z,22.50
2024-04-24T06:27:55.111Z,19.90
2024-04-24T06:30:24.260Z,23.70
2024-04-24T06:32:54.152Z,23.60
2024-04-24T06:35:26.819Z,24.60
2024-04-24T06:37:57.506Z,19.70
2024-04-24T06:40:26.280Z,16.20
2024-04-24T06:42:55.450Z,19.10
2024-04-24T06:45:24.774Z,19.30
2024-04-24T06:47:54.547Z,13.00
2024-04-24T06:50:23.797Z,14.90
2024-04-24T06:52:52.790Z,14.20
2024-04-24T06:55:22.953Z,11.40
2024-04-24T06:57:53.017Z,18.00
2024-04-24T07:00:22.575Z,13.90
2024-04-24T07:02:51.699Z,18.10
2024-04-24T07:05:20.716Z,12.20
2024-04-24T07:07:50.731Z,9.00
2024-04-24T07:10:20.019Z,12.60
2024-04-24T07:12:49.541Z,11.30
2024-04-24T07:15:19.001Z,10.00
2024-04-24T07:17:48.323Z,15.50
2024-04-24T07:20:18.478Z,13.10
2024-04-24T07:22:47.641Z,14.60
2024-04-24T07:25:19.282Z,13.30
2024-04-24T07:27:49.079Z,15.50
2024-04-24T07:30:19.922Z,14.20
2024-04-24T07:32:48.849Z,11.90
2024-04-24T07:35:17.907Z,13.20
2024-04-24T07:37:46.590Z,13.40
2024-04-24T07:40:17.458Z,9.40
2024-04-24T07:42:48.313Z,11.00
2024-04-24T07:45:17.397Z,11.80
2024-04-24T07:47:46.749Z,9.10
2024-04-24T07:50:16.702Z,9.30
2024-04-24T07:52:46.194Z,16.90
2024-04-24T07:55:15.897Z,7.70
2024-04-24T07:57:46.336Z,9.90
2024-04-24T08:00:16.351Z,10.90
2024-04-24T08:02:45.492Z,11.60
2024-04-24T08:05:16.318Z,12.50
2024-04-24T08:07:45.438Z,12.70
2024-04-24T08:10:15.640Z,14.00
2024-04-24T08:12:46.496Z,11.00
2024-04-24T08:15:17.839Z,13.80
2024-04-24T08:17:48.668Z,8.80
2024-04-24T08:20:19.411Z,15.10
2024-04-24T08:22:49.126Z,13.20
2024-04-24T08:25:18.932Z,14.70
2024-04-24T08:27:52.136Z,10.30
2024-04-24T08:30:21.349Z,14.60
2024-04-24T08:32:50.768Z,13.80
2024-04-24T08:35:20.072Z,7.00
2024-04-24T08:37:49.351Z,12.10
2024-04-24T08:40:18.910Z,13.40
2024-04-24T08:42:48.229Z,20.30
2024-04-24T08:45:21.528Z,7.60
2024-04-24T08:47:51.227Z,9.70
2024-04-24T08:50:21.418Z,11.70
2024-04-24T08:52:56.824Z,8.20
2024-04-24T08:55:26.236Z,8.60
2024-04-24T08:57:58.114Z,11.10
2024-04-24T09:00:30.346Z,7.90
2024-04-24T09:03:07.247Z,39.30
2024-04-24T09:05:37.550Z,58.00
2024-04-24T09:08:08.509Z,90.60
2024-04-24T09:10:39.734Z,83.40
2024-04-24T09:13:11.942Z,86.60
2024-04-24T09:15:44.831Z,76.50
2024-04-24T09:18:14.732Z,51.30
2024-04-24T09:20:45.360Z,38.00
2024-04-24T09:23:18.659Z,18.50
2024-04-24T09:25:48.186Z,15.80
2024-04-24T09:28:23.011Z,10.80
2024-04-24T09:30:54.924Z,9.90
2024-04-24T09:33:24.032Z,16.60
2024-04-24T09:35:53.087Z,10.80
2024-04-24T09:38:23.478Z,10.40
2024-04-24T09:40:54.160Z,14.30
2024-04-24T09:43:23.536Z,13.00
2024-04-24T09:45:53.034Z,8.50
2024-04-24T09:48:25.117Z,6.90
2024-04-24T09:50:54.915Z,13.20
2024-04-24T09:53:24.269Z,9.70
2024-04-24T09:56:00.818Z,9.80
2024-04-24T09:58:37.620Z,11.70
2024-04-24T10:01:09.616Z,8.10
2024-04-24T10:03:41.297Z,8.00
2024-04-24T10:06:15.413Z,10.10
2024-04-24T10:08:46.919Z,7.80
2024-04-24T10:11:21.429Z,7.90
2024-04-24T10:13:53.394Z,7.80
2024-04-24T10:16:22.950Z,10.20
2024-04-24T10:18:53.810Z,8.10
2024-04-24T10:21:24.566Z,16.70
2024-04-24T10:23:55.508Z,9.40
2024-04-24T10:26:26.964Z,13.10
2024-04-24T10:28:56.652Z,10.70
2024-04-24T10:31:26.647Z,7.80
2024-04-24T10:33:56.334Z,10.80
2024-04-24T10:36:25.956Z,9.50
2024-04-24T10:38:56.253Z,12.80
2024-04-24T10:41:27.141Z,11.40
2024-04-24T10:43:58.574Z,12.20
2024-04-24T10:46:28.116Z,9.00
2024-04-24T10:48:59.131Z,12.00
2024-04-24T10:51:35.398Z,8.40
2024-04-24T10:54:07.904Z,10.00
2024-04-24T10:56:42.027Z,12.60
2024-04-24T10:59:12.378Z,15.20
2024-04-24T11:01:53.397Z,9.50
2024-04-24T11:04:25.939Z,10.10
2024-04-24T11:06:56.349Z,10.60
2024-04-24T11:09:26.868Z,10.70
2024-04-24T11:12:00.761Z,12.10
2024-04-24T11:14:43.140Z,9.60
2024-04-24T11:17:13.030Z,10.00
2024-04-24T11:19:42.599Z,10.10
2024-04-24T11:22:11.316Z,12.10
2024-04-24T11:24:41.755Z,8.30
2024-04-24T11:27:11.731Z,9.00
2024-04-24T11:29:40.854Z,10.00
2024-04-24T11:32:11.725Z,9.40
2024-04-24T11:34:41.784Z,11.90
2024-04-24T11:37:11.248Z,10.10
2024-04-24T11:39:40.754Z,7.40
2024-04-24T11:42:10.007Z,9.60
2024-04-24T11:44:39.024Z,7.40
2024-04-24T11:47:09.741Z,11.90
2024-04-24T11:49:38.745Z,14.10
2024-04-24T11:52:13.108Z,12.00
2024-04-24T11:54:46.632Z,12.00
2024-04-24T11:57:18.243Z,8.70
2024-04-24T11:59:48.773Z,7.50
2024-04-24T12:02:19.666Z,9.90
2024-04-24T12:04:49.561Z,7.70
2024-04-24T12:07:18.569Z,10.50
2024-04-24T12:09:47.620Z,6.80
2024-04-24T12:12:17.779Z,8.10
2024-04-24T12:14:52.661Z,6.20
2024-04-24T12:17:21.661Z,10.70
2024-04-24T12:19:52.819Z,6.80
2024-04-24T12:22:23.217Z,6.30
2024-04-24T12:24:52.412Z,8.80
2024-04-24T12:27:22.647Z,8.40
2024-04-24T12:29:51.654Z,6.00
2024-04-24T12:32:21.256Z,6.70
2024-04-24T12:34:50.970Z,7.30
2024-04-24T12:37:19.856Z,6.30
2024-04-24T12:39:50.228Z,7.40
2024-04-24T12:42:19.313Z,8.70
2024-04-24T12:44:48.285Z,9.60
2024-04-24T12:47:19.276Z,9.60
2024-04-24T12:49:48.211Z,12.00
2024-04-24T12:52:18.434Z,7.20
2024-04-24T12:54:48.344Z,6.60
2024-04-24T12:57:17.640Z,9.70
2024-04-24T12:59:47.407Z,9.70
2024-04-24T13:02:17.471Z,9.10
2024-04-24T13:04:47.092Z,5.90
2024-04-24T13:07:16.904Z,7.40
2024-04-24T13:09:46.000Z,6.50
2024-04-24T13:12:16.840Z,7.30
2024-04-24T13:14:47.187Z,6.20
2024-04-24T13:17:17.635Z,4.90
2024-04-24T13:19:46.885Z,7.20
2024-04-24T13:22:15.684Z,12.20
2024-04-24T13:24:46.101Z,7.40
2024-04-24T13:27:15.402Z,8.20
2024-04-24T13:29:44.398Z,6.80
2024-04-24T13:32:13.825Z,6.90
2024-04-24T13:34:44.536Z,8.20
2024-04-24T13:37:15.175Z,5.60
2024-04-24T13:39:44.149Z,5.60
2024-04-24T13:42:14.598Z,8.00
2024-04-24T13:44:47.071Z,5.30
2024-04-24T13:47:18.254Z,6.20
2024-04-24T13:49:47.668Z,16.20
2024-04-24T13:52:18.057Z,7.10
2024-04-24T13:54:48.108Z,4.40
2024-04-24T13:57:17.686Z,8.70
2024-04-24T13:59:47.388Z,4.30
2024-04-24T14:02:15.988Z,8.70
2024-04-24T14:04:46.153Z,6.60
2024-04-24T14:07:15.538Z,5.90
2024-04-24T14:09:45.037Z,8.70
2024-04-24T14:12:15.479Z,6.20
2024-04-24T14:14:45.383Z,6.70
2024-04-24T14:17:14.119Z,8.00
2024-04-24T14:19:42.866Z,8.70
2024-04-24T14:22:12.665Z,6.00
2024-04-24T14:24:41.573Z,8.50
2024-04-24T14:27:10.600Z,11.30
2024-04-24T14:29:40.066Z,9.00
2024-04-24T14:32:08.983Z,6.00
2024-04-24T14:34:38.177Z,6.70
2024-04-24T14:37:07.322Z,5.80
2024-04-24T14:39:37.289Z,6.30
2024-04-24T14:42:07.158Z,8.10
2024-04-24T14:44:35.818Z,7.80
2024-04-24T14:47:06.429Z,3.90
2024-04-24T14:49:36.346Z,4.30
2024-04-24T14:52:08.159Z,5.10
2024-04-24T14:54:36.935Z,7.80
2024-04-24T14:57:07.850Z,7.80
2024-04-24T14:59:37.490Z,5.90
2024-04-24T15:02:07.433Z,9.40
2024-04-24T15:04:38.780Z,3.50
2024-04-24T15:07:14.344Z,5.60
2024-04-24T15:09:43.418Z,7.60
2024-04-24T15:12:13.543Z,6.00
2024-04-24T15:14:42.382Z,5.00
2024-04-24T15:17:12.068Z,9.60
2024-04-24T15:19:42.254Z,5.90
2024-04-24T15:22:11.717Z,7.40
2024-04-24T15:24:40.407Z,6.70
2024-04-24T15:27:10.015Z,4.90
2024-04-24T15:29:39.230Z,7.90
2024-04-24T15:32:09.681Z,5.50
2024-04-24T15:34:38.854Z,4.80
2024-04-24T15:37:08.819Z,5.70
2024-04-24T15:39:40.041Z,4.00
2024-04-24T15:42:11.608Z,8.70
2024-04-24T15:44:40.288Z,6.70
2024-04-24T15:47:09.483Z,10.20
2024-04-24T15:49:39.049Z,7.00
2024-04-24T15:52:08.392Z,8.70
2024-04-24T15:54:38.215Z,6.60
2024-04-24T15:57:09.411Z,9.90
2024-04-24T15:59:38.979Z,9.00
2024-04-24T16:02:10.755Z,7.90
2024-04-24T16:04:39.987Z,6.70
2024-04-24T16:07:11.461Z,3.90
2024-04-24T16:09:41.905Z,4.60
2024-04-24T16:12:10.376Z,11.50
2024-04-24T16:14:38.931Z,6.90
2024-04-24T16:17:07.493Z,8.70
2024-04-24T16:19:36.687Z,12.70
2024-04-24T16:22:05.439Z,8.80
2024-04-24T16:24:34.490Z,6.40
2024-04-24T16:27:03.478Z,8.30
2024-04-24T16:29:32.492Z,9.00
2024-04-24T16:32:01.937Z,6.80
2024-04-24T16:34:31.804Z,9.80
2024-04-24T16:37:01.425Z,7.50
2024-04-24T16:39:31.192Z,7.90
2024-04-24T16:41:59.894Z,6.10
2024-04-24T16:44:29.905Z,5.30
2024-04-24T16:47:07.510Z,4.00
2024-04-24T16:49:38.245Z,3.10
2024-04-24T16:52:11.921Z,7.70
2024-04-24T16:54:40.901Z,3.40
2024-04-24T16:57:09.791Z,5.80
2024-04-24T16:59:39.143Z,8.10
2024-04-24T17:02:08.745Z,5.40
2024-04-24T17:04:37.877Z,7.00
2024-04-24T17:07:06.730Z,5.80
2024-04-24T17:09:37.513Z,2.60
2024-04-24T17:12:06.971Z,4.60
2024-04-24T17:14:36.341Z,6.00
2024-04-24T17:17:05.537Z,5.70
2024-04-24T17:19:34.387Z,4.30
2024-04-24T17:22:03.985Z,4.60
2024-04-24T17:24:33.734Z,3.80
2024-04-24T17:27:03.570Z,4.10
2024-04-24T17:29:32.773Z,6.60
2024-04-24T17:32:01.734Z,9.00
2024-04-24T17:34:31.865Z,6.30
2024-04-24T17:37:01.067Z,6.90
2024-04-24T17:39:30.980Z,9.10
2024-04-24T17:42:01.202Z,17.40
2024-04-24T17:44:31.720Z,20.90
2024-04-24T17:47:01.222Z,15.50
2024-04-24T17:49:30.432Z,20.20
2024-04-24T17:51:59.467Z,14.40
2024-04-24T17:54:29.081Z,11.90
2024-04-24T17:57:00.272Z,8.70
2024-04-24T17:59:29.758Z,7.30
2024-04-24T18:01:59.818Z,6.50
2024-04-24T18:04:29.368Z,7.80
2024-04-24T18:07:00.415Z,5.80
2024-04-24T18:09:32.132Z,5.50
2024-04-24T18:12:01.248Z,5.90
2024-04-24T18:14:30.068Z,7.60
2024-04-24T18:17:01.419Z,7.90
2024-04-24T18:19:30.660Z,5.00
2024-04-24T18:21:59.909Z,6.10
2024-04-24T18:24:29.971Z,8.30
2024-04-24T18:26:59.017Z,7.10
2024-04-24T18:29:28.830Z,6.60
2024-04-24T18:31:57.635Z,8.80
2024-04-24T18:34:26.426Z,8.20
2024-04-24T18:36:56.148Z,7.20
2024-04-24T18:39:26.125Z,6.90
2024-04-24T18:41:54.980Z,6.60
2024-04-24T18:44:24.161Z,7.10
2024-04-24T18:46:52.641Z,6.40
2024-04-24T18:49:21.699Z,5.50
2024-04-24T18:51:50.691Z,5.90
2024-04-24T18:54:20.355Z,6.70
2024-04-24T18:56:51.809Z,6.50
2024-04-24T18:59:20.997Z,6.10
2024-04-24T19:01:50.353Z,8.10
2024-04-24T19:04:19.501Z,7.50
2024-04-24T19:06:52.951Z,7.80
2024-04-24T19:09:21.685Z,8.00
2024-04-24T19:11:51.426Z,7.20
2024-04-24T19:14:20.873Z,7.40
2024-04-24T19:16:51.569Z,9.00
2024-04-24T19:19:20.709Z,10.50
2024-04-24T19:21:49.581Z,9.30
2024-04-24T19:24:18.665Z,8.90
2024-04-24T19:26:48.174Z,11.10
2024-04-24T19:29:17.591Z,14.20
2024-04-24T19:31:46.558Z,9.20
2024-04-24T19:34:15.426Z,9.00
2024-04-24T19:36:44.406Z,8.30
2024-04-24T19:39:13.709Z,7.70
2024-04-24T19:41:42.963Z,8.70
2024-04-24T19:44:12.325Z,7.50
2024-04-24T19:46:41.247Z,7.60
2024-04-24T19:49:10.200Z,7.60
2024-04-24T19:51:39.499Z,7.80
2024-04-24T19:54:09.072Z,8.80
2024-04-24T19:56:39.853Z,8.30
2024-04-24T19:59:09.183Z,7.70
2024-04-24T20:01:39.776Z,8.30
2024-04-24T20:04:09.790Z,7.60
2024-04-24T20:06:38.783Z,7.90
2024-04-24T20:09:07.989Z,7.10
2024-04-24T20:11:38.227Z,7.30
2024-04-24T20:14:08.370Z,6.90
2024-04-24T20:16:37.470Z,7.60
2024-04-24T20:19:08.263Z,8.00
2024-04-24T20:21:37.569Z,8.50
2024-04-24T20:24:06.907Z,6.70
2024-04-24T20:26:36.156Z,8.40
2024-04-24T20:29:06.004Z,7.90
2024-04-24T20:31:35.588Z,8.80
2024-04-24T20:34:04.884Z,7.30
2024-04-24T20:36:34.392Z,8.10
2024-04-24T20:39:07.317Z,7.00
2024-04-24T20:41:38.273Z,7.60
2024-04-24T20:44:07.349Z,7.10
2024-04-24T20:46:43.111Z,7.10
2024-04-24T20:49:12.358Z,8.50
2024-04-24T20:51:42.596Z,6.90
2024-04-24T20:54:13.279Z,8.40
2024-04-24T20:56:42.133Z,7.20
2024-04-24T20:59:11.449Z,8.70
2024-04-24T21:01:41.484Z,8.40
2024-04-24T21:04:10.298Z,9.50
2024-04-24T21:06:39.314Z,8.70
2024-04-24T21:09:08.047Z,9.20
2024-04-24T21:11:36.705Z,9.50
2024-04-24T21:14:05.835Z,10.70
2024-04-24T21:16:35.445Z,9.80
2024-04-24T21:19:04.848Z,10.40
2024-04-24T21:21:33.426Z,11.10
2024-04-24T21:24:02.062Z,8.60
2024-04-24T21:26:32.422Z,9.20
2024-04-24T21:29:00.776Z,10.60
2024-04-24T21:31:29.031Z,10.10
2024-04-24T21:33:57.887Z,10.40
2024-04-24T21:36:26.398Z,12.00
2024-04-24T21:38:55.344Z,10.10
2024-04-24T21:41:25.357Z,8.30
2024-04-24T21:43:54.501Z,9.00
2024-04-24T21:46:24.269Z,9.60
2024-04-24T21:48:54.594Z,12.30
2024-04-24T21:51:24.021Z,10.10
2024-04-24T21:53:57.369Z,9.20
2024-04-24T21:56:26.971Z,11.50
2024-04-24T21:58:56.482Z,9.50
2024-04-24T22:01:25.730Z,10.70
2024-04-24T22:03:57.733Z,10.60
2024-04-24T22:06:29.942Z,12.00
2024-04-24T22:08:59.619Z,11.10
2024-04-24T22:11:29.548Z,10.00
2024-04-24T22:13:58.645Z,12.40
2024-04-24T22:16:28.292Z,10.80
2024-04-24T22:18:59.369Z,10.40
2024-04-24T22:21:31.632Z,9.30
2024-04-24T22:24:02.301Z,10.10
2024-04-24T22:26:32.064Z,10.10
2024-04-24T22:29:01.416Z,10.80
2024-04-24T22:31:31.215Z,9.30
2024-04-24T22:34:00.727Z,10.90
2024-04-24T22:36:29.826Z,8.50
2024-04-24T22:38:59.745Z,8.90
2024-04-24T22:41:30.688Z,8.50
2024-04-24T22:44:00.395Z,9.30
2024-04-24T22:46:29.278Z,9.00
2024-04-24T22:48:58.613Z,11.80
2024-04-24T22:51:28.187Z,9.40
2024-04-24T22:53:58.056Z,8.90
2024-04-24T22:56:27.048Z,8.20
2024-04-24T22:58:55.780Z,6.70
2024-04-24T23:01:25.655Z,8.40
2024-04-24T23:03:54.648Z,9.10
2024-04-24T23:06:24.045Z,9.50
2024-04-24T23:08:56.056Z,9.00
2024-04-24T23:11:26.095Z,9.20
2024-04-24T23:13:58.051Z,7.50
2024-04-24T23:16:28.366Z,8.80
2024-04-24T23:18:57.279Z,8.40
2024-04-24T23:21:26.507Z,10.00
2024-04-24T23:23:56.786Z,8.20
2024-04-24T23:26:26.737Z,7.50
2024-04-24T23:28:56.657Z,7.00
2024-04-24T23:31:26.284Z,8.10
2024-04-24T23:33:56.088Z,7.70
2024-04-24T23:36:26.662Z,6.40
2024-04-24T23:38:56.169Z,8.50
2024-04-24T23:41:24.671Z,8.00
2024-04-24T23:43:54.566Z,6.40
2024-04-24T23:46:23.980Z,5.80
2024-04-24T23:48:53.734Z,6.60
2024-04-24T23:51:23.095Z,7.60
2024-04-24T23:53:52.962Z,7.50
2024-04-24T23:56:23.544Z,6.80
2024-04-24T23:58:53.495Z,7.00
